createdAt,value
2022-10-31T00:02:14.428Z,9.52
2022-10-31T00:05:22.611Z,9.67
2022-10-31T00:08:30.805Z,9.46
2022-10-31T00:11:39.133Z,9.41
2022-10-31T00:14:47.425Z,9.28
2022-10-31T00:17:57.480Z,9.23
2022-10-31T00:21:06.673Z,9.26
2022-10-31T00:24:15.313Z,9.18
2022-10-31T00:27:23.638Z,9.33
2022-10-31T00:30:33.193Z,9.24
2022-10-31T00:33:43.760Z,9.23
2022-10-31T00:36:52.271Z,9.13
2022-10-31T00:40:00.623Z,9.11
2022-10-31T00:43:09.009Z,9.10
2022-10-31T00:46:17.669Z,9.15
2022-10-31T00:49:27.434Z,9.11
2022-10-31T00:52:36.004Z,9.10
2022-10-31T00:55:44.819Z,9.01
2022-10-31T00:58:53.208Z,8.94
2022-10-31T01:02:02.879Z,9.03
2022-10-31T01:05:12.648Z,9.03
2022-10-31T01:08:20.817Z,9.06
2022-10-31T01:11:35.225Z,9.11
2022-10-31T01:14:47.566Z,9.10
2022-10-31T01:17:55.979Z,9.07
2022-10-31T01:24:27.546Z,9.05
2022-10-31T01:27:36.386Z,9.06
2022-10-31T01:30:44.768Z,9.05
2022-10-31T01:33:53.825Z,9.14
2022-10-31T01:37:02.885Z,9.10
2022-10-31T01:40:13.986Z,9.15
2022-10-31T01:46:41.838Z,8.83
2022-10-31T01:49:55.951Z,8.86
2022-10-31T01:53:07.182Z,8.90
2022-10-31T01:56:19.843Z,8.94
2022-10-31T01:59:33.164Z,8.94
2022-10-31T02:02:44.042Z,8.95
2022-10-31T02:05:55.397Z,8.89
2022-10-31T02:09:07.738Z,8.79
2022-10-31T02:12:19.749Z,8.89
2022-10-31T02:15:28.854Z,8.98
2022-10-31T02:18:37.326Z,8.92
2022-10-31T02:21:56.107Z,8.73
2022-10-31T02:25:36.612Z,8.62
2022-10-31T02:29:35.637Z,8.61
2022-10-31T02:33:17.763Z,8.55
2022-10-31T02:36:34.662Z,8.64
2022-10-31T02:39:58.835Z,8.48
2022-10-31T02:43:29.578Z,8.50
2022-10-31T02:46:47.055Z,8.45
2022-10-31T02:50:09.023Z,8.33
2022-10-31T02:53:18.064Z,8.29
2022-10-31T02:56:26.530Z,8.19
2022-10-31T02:59:39.182Z,8.18
2022-10-31T03:03:05.951Z,8.20
2022-10-31T03:06:26.231Z,8.15
2022-10-31T03:09:49.194Z,8.15
2022-10-31T03:13:11.839Z,8.16
2022-10-31T03:16:31.212Z,8.13
2022-10-31T03:19:48.103Z,8.08
2022-10-31T03:23:01.491Z,8.04
2022-10-31T03:26:13.437Z,8.23
2022-10-31T03:29:27.716Z,8.05
2022-10-31T03:32:44.126Z,7.88
2022-10-31T03:35:56.802Z,7.72
2022-10-31T03:39:14.133Z,7.58
2022-10-31T03:42:26.981Z,7.57
2022-10-31T03:45:41.430Z,7.57
2022-10-31T03:48:50.143Z,7.60
2022-10-31T03:52:05.185Z,7.63
2022-10-31T03:55:21.452Z,7.72
2022-10-31T03:58:38.339Z,7.79
2022-10-31T04:01:54.097Z,7.81
2022-10-31T04:05:04.596Z,7.79
2022-10-31T04:08:21.311Z,7.79
2022-10-31T04:11:37.154Z,7.75
2022-10-31T04:15:08.687Z,7.78
2022-10-31T04:18:17.282Z,7.76
2022-10-31T04:21:30.447Z,7.76
2022-10-31T04:24:42.498Z,7.71
2022-10-31T04:27:56.719Z,7.69
2022-10-31T04:31:05.942Z,7.68
2022-10-31T04:34:18.428Z,7.55
2022-10-31T04:37:26.776Z,7.60
2022-10-31T04:40:35.314Z,7.65
2022-10-31T04:44:17.453Z,7.56
2022-10-31T04:47:29.152Z,7.46
2022-10-31T04:50:37.596Z,7.38
2022-10-31T04:53:45.909Z,7.68
2022-10-31T04:57:09.684Z,7.63
2022-10-31T05:00:24.570Z,7.31
2022-10-31T05:03:33.179Z,7.07
2022-10-31T05:06:41.600Z,7.00
2022-10-31T05:09:50.625Z,6.97
2022-10-31T05:13:03.922Z,6.90
2022-10-31T05:16:32.640Z,6.86
2022-10-31T05:20:03.532Z,6.98
2022-10-31T05:23:32.269Z,7.14
2022-10-31T05:26:41.947Z,7.04
2022-10-31T05:29:51.614Z,7.01
2022-10-31T05:33:02.782Z,6.93
2022-10-31T05:36:47.921Z,6.92
2022-10-31T05:40:08.053Z,6.91
2022-10-31T05:43:17.505Z,6.98
2022-10-31T05:46:26.777Z,6.98
2022-10-31T05:50:12.992Z,7.06
2022-10-31T05:53:28.746Z,7.01
2022-10-31T05:56:37.738Z,7.05
2022-10-31T05:59:49.936Z,7.04
2022-10-31T06:03:04.192Z,7.04
2022-10-31T06:06:24.999Z,7.05
2022-10-31T06:09:34.378Z,7.05
2022-10-31T06:12:43.190Z,7.09
2022-10-31T06:16:11.876Z,7.09
2022-10-31T06:19:21.787Z,7.14
2022-10-31T06:26:26.768Z,7.36
2022-10-31T06:29:35.641Z,7.31
2022-10-31T06:32:50.391Z,7.35
2022-10-31T06:35:58.942Z,7.50
2022-10-31T06:39:08.272Z,7.46
2022-10-31T06:42:19.333Z,7.54
2022-10-31T06:45:28.526Z,7.61
2022-10-31T06:48:55.193Z,7.80
2022-10-31T06:52:24.306Z,7.89
2022-10-31T06:55:36.362Z,8.16
2022-10-31T06:58:47.662Z,8.28
2022-10-31T07:01:59.479Z,8.33
2022-10-31T07:05:09.058Z,8.41
2022-10-31T07:08:17.781Z,8.72
2022-10-31T07:11:29.606Z,8.77
2022-10-31T07:14:40.839Z,8.90
2022-10-31T07:17:49.437Z,9.24
2022-10-31T07:21:01.517Z,9.43
2022-10-31T07:24:09.912Z,9.40
2022-10-31T07:27:42.726Z,9.71
2022-10-31T07:30:56.990Z,9.81
2022-10-31T07:34:07.150Z,9.87
2022-10-31T07:37:35.312Z,10.23
2022-10-31T07:40:45.860Z,10.42
2022-10-31T07:43:57.046Z,10.60
2022-10-31T07:47:46.928Z,10.82
2022-10-31T07:51:14.021Z,11.02
2022-10-31T07:54:57.714Z,11.37
2022-10-31T07:58:09.607Z,11.61
2022-10-31T08:01:21.359Z,11.76
2022-10-31T08:04:48.348Z,12.01
2022-10-31T08:08:22.483Z,12.25
2022-10-31T08:11:30.866Z,12.60
2022-10-31T08:14:40.454Z,12.96
2022-10-31T08:17:49.724Z,13.07
2022-10-31T08:20:59.758Z,13.13
2022-10-31T08:24:09.383Z,13.23
2022-10-31T08:27:21.205Z,13.34
2022-10-31T08:30:32.712Z,13.49
2022-10-31T08:34:00.097Z,13.62
2022-10-31T08:37:25.623Z,13.80
2022-10-31T08:40:41.185Z,13.95
2022-10-31T08:43:49.688Z,14.18
2022-10-31T08:46:58.013Z,14.37
2022-10-31T08:50:10.813Z,14.65
2022-10-31T08:53:23.603Z,14.78
2022-10-31T08:56:43.776Z,14.86
2022-10-31T09:00:08.844Z,15.01
2022-10-31T09:03:35.841Z,15.17
2022-10-31T09:07:07.900Z,15.35
2022-10-31T09:10:15.508Z,15.46
2022-10-31T09:13:28.125Z,15.77
2022-10-31T09:16:55.758Z,15.94
2022-10-31T09:20:13.449Z,16.05
2022-10-31T09:23:24.390Z,16.35
2022-10-31T09:26:37.280Z,16.55
2022-10-31T09:30:11.452Z,16.60
2022-10-31T09:33:20.763Z,16.72
2022-10-31T09:36:42.294Z,16.85
2022-10-31T09:39:56.615Z,16.93
2022-10-31T09:43:31.360Z,17.15
2022-10-31T09:47:00.731Z,17.34
2022-10-31T09:50:22.119Z,17.50
2022-10-31T09:53:40.933Z,17.53
2022-10-31T09:56:54.837Z,17.48
2022-10-31T10:00:07.516Z,17.53
2022-10-31T10:03:36.388Z,17.63
2022-10-31T10:07:05.155Z,17.71
2022-10-31T10:10:40.933Z,17.98
2022-10-31T10:14:37.402Z,17.87
2022-10-31T10:18:01.890Z,17.82
2022-10-31T10:21:28.251Z,17.86
2022-10-31T10:25:04.099Z,17.90
2022-10-31T10:28:23.680Z,17.89
2022-10-31T10:31:42.451Z,17.95
2022-10-31T10:35:00.120Z,18.01
2022-10-31T10:38:20.159Z,18.10
2022-10-31T10:41:35.863Z,18.32
2022-10-31T10:45:06.951Z,18.42
2022-10-31T10:48:40.545Z,18.30
2022-10-31T10:55:40.309Z,18.48
2022-10-31T10:58:50.021Z,18.67
2022-10-31T11:02:00.638Z,18.84
2022-10-31T11:05:24.377Z,19.09
2022-10-31T11:08:37.716Z,19.05
2022-10-31T11:11:46.491Z,18.90
2022-10-31T11:15:00.567Z,19.28
2022-10-31T11:21:38.511Z,19.57
2022-10-31T11:24:48.858Z,19.42
2022-10-31T11:28:05.975Z,19.47
2022-10-31T11:31:18.009Z,19.13
2022-10-31T11:34:34.392Z,19.18
2022-10-31T11:37:46.563Z,19.05
2022-10-31T11:41:02.062Z,19.59
2022-10-31T11:44:19.989Z,19.68
2022-10-31T11:47:33.710Z,19.73
2022-10-31T11:50:44.537Z,19.68
2022-10-31T11:54:00.153Z,20.00
2022-10-31T11:57:30.827Z,20.34
2022-10-31T12:00:41.959Z,20.19
2022-10-31T12:04:08.531Z,20.45
2022-10-31T12:07:17.023Z,20.02
2022-10-31T12:10:40.362Z,20.40
2022-10-31T12:14:09.203Z,20.56
2022-10-31T12:17:25.513Z,20.45
2022-10-31T12:20:51.741Z,20.22
2022-10-31T12:24:18.776Z,20.11
2022-10-31T12:27:46.247Z,19.80
2022-10-31T12:31:17.876Z,19.67
2022-10-31T12:35:10.571Z,19.63
2022-10-31T12:38:39.418Z,19.59
2022-10-31T12:41:55.338Z,19.67
2022-10-31T12:45:44.028Z,19.68
2022-10-31T12:49:30.038Z,19.76
2022-10-31T12:52:58.668Z,19.75
2022-10-31T12:56:33.689Z,19.79
2022-10-31T12:59:49.434Z,19.90
2022-10-31T13:03:07.334Z,20.04
2022-10-31T13:06:23.207Z,19.86
2022-10-31T13:09:44.319Z,19.98
2022-10-31T13:13:03.855Z,19.82
2022-10-31T13:16:18.641Z,19.92
2022-10-31T13:19:34.064Z,19.90
2022-10-31T13:22:49.324Z,19.79
2022-10-31T13:26:03.409Z,19.73
2022-10-31T13:29:26.865Z,19.64
2022-10-31T13:32:45.389Z,19.51
2022-10-31T13:36:07.187Z,19.46
2022-10-31T13:39:34.985Z,19.37
2022-10-31T13:42:57.585Z,19.30
2022-10-31T13:46:26.037Z,19.21
2022-10-31T13:49:42.015Z,19.16
2022-10-31T13:52:50.458Z,19.01
2022-10-31T13:56:17.470Z,18.98
2022-10-31T13:59:29.227Z,18.95
2022-10-31T14:02:38.954Z,18.88
2022-10-31T14:05:56.385Z,18.85
2022-10-31T14:09:05.233Z,18.74
2022-10-31T14:12:28.732Z,18.68
2022-10-31T14:15:43.129Z,18.57
2022-10-31T14:19:02.596Z,18.50
2022-10-31T14:22:23.059Z,18.49
2022-10-31T14:25:34.797Z,18.50
2022-10-31T14:28:44.694Z,18.59
2022-10-31T14:32:11.762Z,18.60
2022-10-31T14:35:22.308Z,18.63
2022-10-31T14:38:49.494Z,18.59
2022-10-31T14:42:18.192Z,18.57
2022-10-31T14:45:42.229Z,18.58
2022-10-31T14:49:14.426Z,18.62
2022-10-31T14:52:23.578Z,18.62
2022-10-31T14:55:33.060Z,18.64
2022-10-31T14:58:46.771Z,18.59
2022-10-31T15:02:03.544Z,18.44
2022-10-31T15:05:14.666Z,18.33
2022-10-31T15:08:36.877Z,18.11
2022-10-31T15:11:46.401Z,17.90
2022-10-31T15:14:56.857Z,17.76
2022-10-31T15:18:08.158Z,17.63
2022-10-31T15:21:18.451Z,17.52
2022-10-31T15:24:34.826Z,17.43
2022-10-31T15:27:43.404Z,17.37
2022-10-31T15:30:58.022Z,17.33
2022-10-31T15:34:24.199Z,17.23
2022-10-31T15:41:29.936Z,16.98
2022-10-31T15:44:44.563Z,16.84
2022-10-31T15:47:59.747Z,16.65
2022-10-31T15:51:09.808Z,16.44
2022-10-31T15:54:18.299Z,16.24
2022-10-31T15:57:28.255Z,16.19
2022-10-31T16:00:40.310Z,16.00
2022-10-31T16:04:02.767Z,15.91
2022-10-31T16:07:40.986Z,15.67
2022-10-31T16:10:50.334Z,15.49
2022-10-31T16:14:04.044Z,15.36
2022-10-31T16:17:16.209Z,15.26
2022-10-31T16:20:32.943Z,15.17
2022-10-31T16:23:58.407Z,15.03
2022-10-31T16:27:21.650Z,14.85
2022-10-31T16:30:45.388Z,14.67
2022-10-31T16:34:06.069Z,14.53
2022-10-31T16:37:14.538Z,14.38
2022-10-31T16:40:24.858Z,14.45
2022-10-31T16:43:33.979Z,14.24
2022-10-31T16:46:42.569Z,14.14
2022-10-31T16:49:54.884Z,13.93
2022-10-31T16:53:19.237Z,13.74
2022-10-31T16:56:51.020Z,13.54
2022-10-31T17:00:00.333Z,13.40
2022-10-31T17:03:11.237Z,13.54
2022-10-31T17:06:19.639Z,13.59
2022-10-31T17:09:28.051Z,13.14
2022-10-31T17:12:39.020Z,13.09
2022-10-31T17:15:53.079Z,12.89
2022-10-31T17:19:01.357Z,12.65
2022-10-31T17:22:13.371Z,12.51
2022-10-31T17:25:24.496Z,12.39
2022-10-31T17:28:39.688Z,12.34
2022-10-31T17:31:50.304Z,12.22
2022-10-31T17:34:58.719Z,12.17
2022-10-31T17:38:07.065Z,12.13
2022-10-31T17:41:15.506Z,12.07
2022-10-31T17:44:25.233Z,11.98
2022-10-31T17:47:34.240Z,12.05
2022-10-31T17:50:43.004Z,12.13
2022-10-31T17:53:51.387Z,12.01
2022-10-31T17:57:04.557Z,11.77
2022-10-31T18:00:19.434Z,11.62
2022-10-31T18:03:28.610Z,11.51
2022-10-31T18:06:46.174Z,11.40
2022-10-31T18:09:55.505Z,11.36
2022-10-31T18:13:04.873Z,11.31
2022-10-31T18:16:19.684Z,11.25
2022-10-31T18:19:28.090Z,11.22
2022-10-31T18:22:36.562Z,11.17
2022-10-31T18:25:44.845Z,11.14
2022-10-31T18:28:53.340Z,11.01
2022-10-31T18:32:08.248Z,10.97
2022-10-31T18:35:17.598Z,10.99
2022-10-31T18:38:25.956Z,10.90
2022-10-31T18:41:35.558Z,10.82
2022-10-31T18:44:44.058Z,10.82
2022-10-31T18:47:54.157Z,10.71
2022-10-31T18:54:13.393Z,10.70
2022-10-31T18:57:21.707Z,10.64
2022-10-31T19:00:30.350Z,10.60
2022-10-31T19:03:41.177Z,10.44
2022-10-31T19:06:49.536Z,10.40
2022-10-31T19:09:58.281Z,10.46
2022-10-31T19:13:07.010Z,10.26
2022-10-31T19:16:18.421Z,10.17
2022-10-31T19:19:28.294Z,10.16
2022-10-31T19:22:36.697Z,10.01
2022-10-31T19:28:58.641Z,9.97
2022-10-31T19:32:07.558Z,9.85
2022-10-31T19:35:17.527Z,9.74
2022-10-31T19:38:26.167Z,9.78
2022-10-31T19:41:34.549Z,9.73
2022-10-31T19:44:43.428Z,9.64
2022-10-31T19:47:51.791Z,9.57
2022-10-31T19:51:07.483Z,9.64
2022-10-31T19:54:16.176Z,9.66
2022-10-31T19:57:48.466Z,9.47
2022-10-31T20:00:53.847Z,9.39
2022-10-31T20:04:02.434Z,9.41
2022-10-31T20:07:12.315Z,9.41
2022-10-31T20:10:20.921Z,9.31
2022-10-31T20:13:31.248Z,9.31
2022-10-31T20:16:40.491Z,9.39
2022-10-31T20:19:49.117Z,9.50
2022-10-31T20:23:01.625Z,9.43
2022-10-31T20:26:16.566Z,9.19
2022-10-31T20:33:07.661Z,9.42
2022-10-31T20:36:19.457Z,8.96
2022-10-31T20:39:29.650Z,8.68
2022-10-31T20:42:38.381Z,8.45
2022-10-31T20:45:46.646Z,8.32
2022-10-31T20:48:55.928Z,8.23
2022-10-31T20:52:04.378Z,8.39
2022-10-31T20:55:14.569Z,8.34
2022-10-31T20:58:23.010Z,8.37
2022-10-31T21:01:33.526Z,8.50
2022-10-31T21:04:42.012Z,8.42
2022-10-31T21:11:09.952Z,8.37
2022-10-31T21:14:18.187Z,8.43
2022-10-31T21:17:26.748Z,8.45
2022-10-31T21:20:35.436Z,8.52
2022-10-31T21:23:44.720Z,8.33
2022-10-31T21:26:56.133Z,8.34
2022-10-31T21:30:05.909Z,8.34
2022-10-31T21:33:14.364Z,8.26
2022-10-31T21:36:22.930Z,8.27
2022-10-31T21:39:31.175Z,8.28
2022-10-31T21:42:40.851Z,8.29
2022-10-31T21:45:49.107Z,8.26
2022-10-31T21:48:58.244Z,8.27
2022-10-31T21:52:06.634Z,8.23
2022-10-31T21:55:15.185Z,8.14
2022-10-31T21:58:24.884Z,8.08
2022-10-31T22:01:34.515Z,8.15
2022-10-31T22:04:44.121Z,8.10
2022-10-31T22:07:52.457Z,7.99
2022-10-31T22:11:03.974Z,7.95
2022-10-31T22:14:16.424Z,7.85
2022-10-31T22:17:28.836Z,8.00
2022-10-31T22:20:39.105Z,7.87
2022-10-31T22:23:52.825Z,7.91
2022-10-31T22:27:01.468Z,7.95
2022-10-31T22:30:13.000Z,7.85
2022-10-31T22:33:21.195Z,7.87
2022-10-31T22:36:32.045Z,7.88
2022-10-31T22:39:40.249Z,7.88
2022-10-31T22:42:48.592Z,7.85
2022-10-31T22:46:03.560Z,7.86
2022-10-31T22:49:16.532Z,7.78
2022-10-31T22:52:24.739Z,7.81
2022-10-31T22:55:37.527Z,7.87
2022-10-31T22:58:46.202Z,7.78
2022-10-31T23:01:56.182Z,7.76
2022-10-31T23:05:04.848Z,7.83
2022-10-31T23:08:13.652Z,7.78
2022-10-31T23:11:25.373Z,7.66
2022-10-31T23:14:32.885Z,7.66
2022-10-31T23:17:43.017Z,7.78
2022-10-31T23:20:53.319Z,7.84
2022-10-31T23:24:03.030Z,8.00
2022-10-31T23:27:16.411Z,7.70
2022-10-31T23:30:25.749Z,7.37
2022-10-31T23:33:35.949Z,7.30
2022-10-31T23:36:44.167Z,7.37
2022-10-31T23:39:52.494Z,7.31
2022-10-31T23:43:00.791Z,7.26
2022-10-31T23:46:09.034Z,7.23
2022-10-31T23:49:18.653Z,7.14
2022-10-31T23:52:26.876Z,7.12
2022-10-31T23:55:35.181Z,7.15
2022-10-31T23:58:43.556Z,7.27
